createdAt,value
2023-04-26T00:02:13.473Z,98862.88
2023-04-26T00:04:48.302Z,98862.23
2023-04-26T00:07:21.634Z,98863.09
2023-04-26T00:09:55.582Z,98863.95
2023-04-26T00:12:28.770Z,98865.62
2023-04-26T00:15:03.111Z,98864.14
2023-04-26T00:17:37.214Z,98865.39
2023-04-26T00:20:13.227Z,98864.59
2023-04-26T00:22:47.176Z,98854.34
2023-04-26T00:25:20.810Z,98856.26
2023-04-26T00:27:53.218Z,98857.02
2023-04-26T00:30:26.024Z,98853.40
2023-04-26T00:32:59.339Z,98851.41
2023-04-26T00:35:33.364Z,98855.34
2023-04-26T00:38:06.466Z,98853.89
2023-04-26T00:40:39.823Z,98852.43
2023-04-26T00:43:13.427Z,98856.58
2023-04-26T00:45:47.463Z,98852.36
2023-04-26T00:48:22.283Z,98848.66
2023-04-26T00:50:55.791Z,98845.11
2023-04-26T00:53:30.065Z,98849.70
2023-04-26T00:56:09.837Z,98848.40
2023-04-26T00:58:43.594Z,98848.38
2023-04-26T01:01:17.272Z,98848.20
2023-04-26T01:03:50.870Z,98851.98
2023-04-26T01:06:24.217Z,98849.86
2023-04-26T01:09:00.758Z,98853.54
2023-04-26T01:11:34.396Z,98850.41
2023-04-26T01:14:07.620Z,98850.73
2023-04-26T01:16:42.043Z,98851.58
2023-04-26T01:19:16.360Z,98852.88
2023-04-26T01:21:50.124Z,98853.29
2023-04-26T01:24:23.044Z,98852.36
2023-04-26T01:26:56.426Z,98856.45
2023-04-26T01:29:30.154Z,98850.23
2023-04-26T01:32:04.375Z,98848.98
2023-04-26T01:34:38.711Z,98849.91
2023-04-26T01:37:14.046Z,98845.90
2023-04-26T01:39:50.172Z,98847.30
2023-04-26T01:42:25.879Z,98850.77
2023-04-26T01:44:59.467Z,98851.59
2023-04-26T01:47:32.833Z,98850.78
2023-04-26T01:50:07.922Z,98849.88
2023-04-26T01:52:41.075Z,98850.27
2023-04-26T01:55:14.504Z,98851.21
2023-04-26T01:57:47.969Z,98847.30
2023-04-26T02:00:21.526Z,98846.36
2023-04-26T02:02:57.425Z,98846.87
2023-04-26T02:05:31.034Z,98849.73
2023-04-26T02:08:05.938Z,98846.98
2023-04-26T02:10:39.271Z,98849.59
2023-04-26T02:13:12.674Z,98852.27
2023-04-26T02:15:53.161Z,98849.19
2023-04-26T02:18:28.633Z,98848.55
2023-04-26T02:21:01.622Z,98849.06
2023-04-26T02:23:35.073Z,98847.95
2023-04-26T02:26:08.085Z,98845.90
2023-04-26T02:28:44.127Z,98844.23
2023-04-26T02:31:21.762Z,98844.27
2023-04-26T02:33:57.180Z,98842.98
2023-04-26T02:36:34.133Z,98845.88
2023-04-26T02:39:09.743Z,98841.91
2023-04-26T02:41:43.303Z,98842.70
2023-04-26T02:44:16.849Z,98844.61
2023-04-26T02:46:52.670Z,98847.39
2023-04-26T02:49:26.363Z,98843.30
2023-04-26T02:52:02.580Z,98848.41
2023-04-26T02:54:35.975Z,98843.77
2023-04-26T02:57:09.793Z,98845.02
2023-04-26T02:59:44.435Z,98841.54
2023-04-26T03:02:18.691Z,98845.36
2023-04-26T03:04:52.676Z,98845.49
2023-04-26T03:07:26.779Z,98840.98
2023-04-26T03:10:00.184Z,98838.05
2023-04-26T03:12:33.659Z,98847.62
2023-04-26T03:15:07.168Z,98849.00
2023-04-26T03:17:40.767Z,98851.63
2023-04-26T03:20:14.898Z,98850.46
2023-04-26T03:22:48.312Z,98854.17
2023-04-26T03:25:21.310Z,98851.22
2023-04-26T03:27:56.112Z,98855.08
2023-04-26T03:30:29.858Z,98854.75
2023-04-26T03:33:03.099Z,98854.25
2023-04-26T03:35:36.159Z,98858.41
2023-04-26T03:38:10.788Z,98856.03
2023-04-26T03:40:43.563Z,98859.02
2023-04-26T03:43:19.963Z,98860.77
2023-04-26T03:45:53.611Z,98861.95
2023-04-26T03:48:28.719Z,98862.27
2023-04-26T03:51:03.424Z,98866.13
2023-04-26T03:53:37.245Z,98868.22
2023-04-26T03:56:11.133Z,98866.45
2023-04-26T03:58:44.378Z,98864.92
2023-04-26T04:01:18.969Z,98868.37
2023-04-26T04:03:51.969Z,98872.05
2023-04-26T04:06:25.392Z,98872.85
2023-04-26T04:08:58.213Z,98873.84
2023-04-26T04:11:32.627Z,98880.82
2023-04-26T04:14:05.592Z,98874.89
2023-04-26T04:16:39.804Z,98880.88
2023-04-26T04:19:13.678Z,98882.83
2023-04-26T04:21:47.656Z,98882.46
2023-04-26T04:24:26.021Z,98882.45
2023-04-26T04:26:58.825Z,98881.27
2023-04-26T04:29:32.752Z,98883.24
2023-04-26T04:32:06.445Z,98878.73
2023-04-26T04:34:48.283Z,98885.66
2023-04-26T04:37:24.442Z,98886.83
2023-04-26T04:39:57.048Z,98889.16
2023-04-26T04:42:34.409Z,98891.24
2023-04-26T04:45:08.885Z,98894.15
2023-04-26T04:47:42.157Z,98894.08
2023-04-26T04:50:15.531Z,98894.21
2023-04-26T04:52:49.216Z,98894.83
2023-04-26T04:55:25.954Z,98896.39
2023-04-26T04:57:59.388Z,98897.95
2023-04-26T05:00:33.137Z,98897.34
2023-04-26T05:03:06.666Z,98899.74
2023-04-26T05:05:39.973Z,98899.45
2023-04-26T05:08:14.107Z,98904.30
2023-04-26T05:10:47.562Z,98910.44
2023-04-26T05:13:20.729Z,98908.05
2023-04-26T05:15:54.138Z,98909.53
2023-04-26T05:18:26.558Z,98909.67
2023-04-26T05:21:00.498Z,98907.93
2023-04-26T05:23:35.323Z,98915.19
2023-04-26T05:26:09.155Z,98915.46
2023-04-26T05:28:43.304Z,98914.11
2023-04-26T05:31:16.340Z,98906.68
2023-04-26T05:33:50.274Z,98901.13
2023-04-26T05:36:23.727Z,98899.33
2023-04-26T05:38:56.891Z,98907.19
2023-04-26T05:41:30.008Z,98911.48
2023-04-26T05:44:05.639Z,98909.46
2023-04-26T05:46:42.366Z,98911.35
2023-04-26T05:49:15.845Z,98912.79
2023-04-26T05:51:49.022Z,98912.05
2023-04-26T05:54:23.321Z,98915.88
2023-04-26T05:56:58.446Z,98922.16
2023-04-26T05:59:33.988Z,98925.14
2023-04-26T06:02:07.286Z,98923.91
2023-04-26T06:04:40.494Z,98924.42
2023-04-26T06:07:13.285Z,98923.90
2023-04-26T06:09:46.874Z,98929.72
2023-04-26T06:12:20.564Z,98929.76
2023-04-26T06:14:53.158Z,98932.31
2023-04-26T06:17:26.661Z,98931.48
2023-04-26T06:20:00.066Z,98933.97
2023-04-26T06:22:33.256Z,98929.17
2023-04-26T06:25:08.080Z,98927.06
2023-04-26T06:27:41.466Z,98923.05
2023-04-26T06:30:17.909Z,98924.94
2023-04-26T06:32:53.598Z,98919.13
2023-04-26T06:35:27.168Z,98919.77
2023-04-26T06:38:00.889Z,98918.67
2023-04-26T06:40:34.385Z,98914.98
2023-04-26T06:43:08.296Z,98916.61
2023-04-26T06:45:43.325Z,98916.64
2023-04-26T06:48:22.625Z,98921.79
2023-04-26T06:50:55.358Z,98922.12
2023-04-26T06:53:31.840Z,98920.64
2023-04-26T06:56:13.674Z,98922.58
2023-04-26T06:59:08.268Z,98927.21
2023-04-26T07:01:42.300Z,98928.09
2023-04-26T07:04:16.372Z,98926.84
2023-04-26T07:06:49.275Z,98932.66
2023-04-26T07:09:23.081Z,98934.16
2023-04-26T07:11:56.129Z,98932.98
2023-04-26T07:14:31.568Z,98933.02
2023-04-26T07:17:04.384Z,98937.63
2023-04-26T07:19:38.167Z,98938.80
2023-04-26T07:22:12.170Z,98936.23
2023-04-26T07:24:46.241Z,98940.65
2023-04-26T07:27:19.230Z,98943.41
2023-04-26T07:29:57.233Z,98936.63
2023-04-26T07:32:31.095Z,98936.88
2023-04-26T07:35:11.813Z,98941.66
2023-04-26T07:37:48.048Z,98941.10
2023-04-26T07:40:23.787Z,98945.20
2023-04-26T07:42:59.894Z,98948.14
2023-04-26T07:45:34.242Z,98951.10
2023-04-26T07:48:10.884Z,98954.03
2023-04-26T07:50:44.599Z,98954.00
2023-04-26T07:53:17.634Z,98957.23
2023-04-26T07:55:52.518Z,98950.02
2023-04-26T07:58:25.681Z,98952.29
2023-04-26T08:00:58.860Z,98953.92
2023-04-26T08:03:39.850Z,98954.98
2023-04-26T08:06:14.269Z,98958.26
2023-04-26T08:08:51.390Z,98961.58
2023-04-26T08:11:24.992Z,98970.82
2023-04-26T08:13:58.487Z,98970.60
2023-04-26T08:16:32.152Z,98978.17
2023-04-26T08:19:05.625Z,98977.35
2023-04-26T08:21:39.153Z,98973.65
2023-04-26T08:24:12.926Z,98979.09
2023-04-26T08:26:45.933Z,98974.28
2023-04-26T08:29:22.316Z,98976.05
2023-04-26T08:31:57.188Z,98972.67
2023-04-26T08:34:30.465Z,98977.91
2023-04-26T08:37:03.224Z,98978.13
2023-04-26T08:39:36.656Z,98972.52
2023-04-26T08:42:17.179Z,98971.38
2023-04-26T08:44:51.581Z,98977.33
2023-04-26T08:47:36.396Z,98977.48
2023-04-26T08:50:12.099Z,98982.14
2023-04-26T08:52:46.146Z,98983.97
2023-04-26T08:55:23.752Z,98987.10
2023-04-26T08:57:58.226Z,98992.48
2023-04-26T09:00:32.468Z,98997.83
2023-04-26T09:03:20.587Z,98995.20
2023-04-26T09:05:54.797Z,98997.27
2023-04-26T09:08:32.282Z,99001.27
2023-04-26T09:11:05.602Z,99000.38
2023-04-26T09:13:39.404Z,99006.06
2023-04-26T09:16:13.129Z,99012.52
2023-04-26T09:18:58.345Z,99007.41
2023-04-26T09:21:32.961Z,99007.36
2023-04-26T09:24:07.970Z,99009.41
2023-04-26T09:26:42.439Z,99008.00
2023-04-26T09:29:21.928Z,99012.77
2023-04-26T09:31:55.289Z,99015.78
2023-04-26T09:34:28.932Z,99023.96
2023-04-26T09:37:01.829Z,99023.18
2023-04-26T09:39:38.618Z,99025.58
2023-04-26T09:42:14.821Z,99024.86
2023-04-26T09:44:48.074Z,99027.05
2023-04-26T09:47:24.198Z,99026.50
2023-04-26T09:49:57.722Z,99035.52
2023-04-26T09:52:30.732Z,99036.52
2023-04-26T09:55:03.868Z,99039.88
2023-04-26T09:57:45.658Z,99042.66
2023-04-26T10:00:21.575Z,99045.08
2023-04-26T10:02:56.696Z,99050.17
2023-04-26T10:05:34.143Z,99057.10
2023-04-26T10:08:09.393Z,99059.00
2023-04-26T10:10:44.959Z,99065.58
2023-04-26T10:13:20.349Z,99067.77
2023-04-26T10:15:55.139Z,99067.95
2023-04-26T10:18:28.748Z,99068.15
2023-04-26T10:21:07.669Z,99072.42
2023-04-26T10:23:42.259Z,99079.00
2023-04-26T10:26:54.683Z,99085.81
2023-04-26T10:29:48.625Z,99093.38
2023-04-26T10:32:23.223Z,99095.06
2023-04-26T10:35:23.070Z,99097.93
2023-04-26T10:38:05.664Z,99098.23
2023-04-26T10:40:41.483Z,99101.29
2023-04-26T10:43:15.810Z,99103.61
2023-04-26T10:45:50.466Z,99113.09
2023-04-26T10:48:32.123Z,99110.02
2023-04-26T10:51:13.676Z,99108.44
2023-04-26T10:53:47.398Z,99109.95
2023-04-26T10:56:29.284Z,99108.89
2023-04-26T10:59:28.288Z,99113.48
2023-04-26T11:02:03.864Z,99112.60
2023-04-26T11:04:53.884Z,99110.49
2023-04-26T11:07:40.208Z,99108.17
2023-04-26T11:10:44.397Z,99111.59
2023-04-26T11:13:19.314Z,99121.35
2023-04-26T11:16:03.580Z,99131.06
2023-04-26T11:18:38.292Z,99129.83
2023-04-26T11:21:13.300Z,99127.41
2023-04-26T11:23:55.841Z,99129.23
2023-04-26T11:26:38.231Z,99127.39
2023-04-26T11:29:15.097Z,99129.79
2023-04-26T11:31:56.645Z,99138.08
2023-04-26T11:34:42.856Z,99136.08
2023-04-26T11:37:17.457Z,99138.52
2023-04-26T11:39:53.642Z,99139.10
2023-04-26T11:42:29.715Z,99137.20
2023-04-26T11:45:03.639Z,99139.59
2023-04-26T11:47:37.673Z,99136.58
2023-04-26T11:50:11.206Z,99147.55
2023-04-26T11:52:46.364Z,99158.55
2023-04-26T11:55:19.660Z,99163.40
2023-04-26T11:57:53.810Z,99166.14
2023-04-26T12:00:28.622Z,99166.24
2023-04-26T12:03:12.192Z,99168.72
2023-04-26T12:05:59.380Z,99173.05
2023-04-26T12:08:35.019Z,99175.20
2023-04-26T12:14:21.084Z,99170.67
2023-04-26T12:16:54.281Z,99164.85
2023-04-26T12:19:29.345Z,99176.63
2023-04-26T12:22:02.803Z,99178.22
2023-04-26T12:24:38.880Z,99179.13
2023-04-26T12:27:22.076Z,99178.20
2023-04-26T12:29:55.877Z,99183.17
2023-04-26T12:32:32.386Z,99182.23
2023-04-26T12:35:06.457Z,99180.90
2023-04-26T12:37:39.780Z,99177.91
2023-04-26T12:40:13.690Z,99175.70
2023-04-26T12:42:51.741Z,99173.77
2023-04-26T12:45:26.720Z,99183.74
2023-04-26T12:47:59.977Z,99193.09
2023-04-26T12:50:33.227Z,99191.81
2023-04-26T12:53:06.287Z,99181.88
2023-04-26T12:55:39.221Z,99183.96
2023-04-26T12:58:13.295Z,99185.39
2023-04-26T13:00:46.464Z,99192.59
2023-04-26T13:03:19.999Z,99194.20
2023-04-26T13:05:53.398Z,99197.36
2023-04-26T13:08:27.318Z,99203.15
2023-04-26T13:11:00.477Z,99202.42
2023-04-26T13:13:43.158Z,99200.59
2023-04-26T13:16:18.031Z,99207.54
2023-04-26T13:18:51.236Z,99210.45
2023-04-26T13:21:24.419Z,99207.84
2023-04-26T13:23:57.727Z,99213.61
2023-04-26T13:26:31.621Z,99215.73
2023-04-26T13:29:05.886Z,99214.62
2023-04-26T13:31:41.220Z,99221.64
2023-04-26T13:34:15.098Z,99224.30
2023-04-26T13:36:48.429Z,99228.83
2023-04-26T13:39:22.060Z,99219.88
2023-04-26T13:41:56.372Z,99229.67
2023-04-26T13:44:32.431Z,99231.20
2023-04-26T13:47:05.796Z,99232.04
2023-04-26T13:49:42.583Z,99228.17
2023-04-26T13:52:16.384Z,99243.12
2023-04-26T13:54:47.940Z,99235.80
2023-04-26T13:57:21.488Z,99242.26
2023-04-26T14:00:08.608Z,99251.85
2023-04-26T14:02:42.884Z,99255.89
2023-04-26T14:05:18.083Z,99251.70
2023-04-26T14:07:54.265Z,99255.95
2023-04-26T14:10:28.856Z,99259.64
2023-04-26T14:13:03.363Z,99255.27
2023-04-26T14:15:37.378Z,99262.05
2023-04-26T14:18:13.308Z,99264.09
2023-04-26T14:20:47.962Z,99268.41
2023-04-26T14:23:20.854Z,99271.70
2023-04-26T14:25:56.910Z,99273.89
2023-04-26T14:28:30.255Z,99278.08
2023-04-26T14:31:04.092Z,99274.73
2023-04-26T14:33:37.809Z,99280.30
2023-04-26T14:36:12.340Z,99285.92
2023-04-26T14:38:46.699Z,99284.32
2023-04-26T14:41:21.101Z,99286.65
2023-04-26T14:43:55.492Z,99282.89
2023-04-26T14:46:28.806Z,99287.42
2023-04-26T14:49:02.903Z,99290.56
2023-04-26T14:51:35.914Z,99294.45
2023-04-26T14:54:12.113Z,99298.69
2023-04-26T14:56:46.259Z,99299.54
2023-04-26T14:59:19.514Z,99304.55
2023-04-26T15:01:54.268Z,99301.94
2023-04-26T15:04:27.979Z,99311.14
2023-04-26T15:07:01.839Z,99312.08
2023-04-26T15:09:35.053Z,99319.33
2023-04-26T15:12:11.517Z,99320.54
2023-04-26T15:14:46.401Z,99324.59
2023-04-26T15:17:19.780Z,99323.73
2023-04-26T15:19:53.061Z,99327.13
2023-04-26T15:22:28.163Z,99327.45
2023-04-26T15:25:04.266Z,99328.27
2023-04-26T15:27:41.654Z,99331.98
2023-04-26T15:30:15.371Z,99332.39
2023-04-26T15:32:50.315Z,99332.29
2023-04-26T15:35:25.624Z,99333.58
2023-04-26T15:37:59.052Z,99331.63
2023-04-26T15:40:37.591Z,99327.55
2023-04-26T15:43:11.268Z,99333.92
2023-04-26T15:45:44.578Z,99329.77
2023-04-26T15:48:18.260Z,99330.30
2023-04-26T15:50:54.876Z,99328.32
2023-04-26T15:53:28.201Z,99330.50
2023-04-26T15:56:05.229Z,99333.14
2023-04-26T15:58:41.067Z,99330.94
2023-04-26T16:01:16.013Z,99335.81
2023-04-26T16:03:50.453Z,99335.96
2023-04-26T16:06:25.682Z,99338.34
2023-04-26T16:09:02.035Z,99339.14
2023-04-26T16:11:36.928Z,99337.30
2023-04-26T16:14:09.892Z,99339.94
2023-04-26T16:16:46.816Z,99345.86
2023-04-26T16:19:20.593Z,99347.77
2023-04-26T16:21:53.305Z,99352.50
2023-04-26T16:24:26.611Z,99345.91
2023-04-26T16:27:04.960Z,99351.02
2023-04-26T16:29:38.580Z,99352.85
2023-04-26T16:32:12.301Z,99347.42
2023-04-26T16:34:45.176Z,99352.46
2023-04-26T16:37:21.960Z,99357.48
2023-04-26T16:39:57.966Z,99356.13
2023-04-26T16:42:32.036Z,99360.40
2023-04-26T16:45:05.587Z,99361.91
2023-04-26T16:47:39.592Z,99360.55
2023-04-26T16:50:13.387Z,99360.08
2023-04-26T16:52:46.707Z,99367.16
2023-04-26T16:55:24.760Z,99366.78
2023-04-26T16:57:58.932Z,99370.32
2023-04-26T17:00:32.692Z,99375.09
2023-04-26T17:03:05.191Z,99386.16
2023-04-26T17:05:49.575Z,99380.27
2023-04-26T17:08:22.861Z,99387.30
2023-04-26T17:10:56.418Z,99386.30
2023-04-26T17:13:31.657Z,99386.45
2023-04-26T17:16:07.014Z,99386.49
2023-04-26T17:18:40.427Z,99391.76
2023-04-26T17:21:14.409Z,99385.27
2023-04-26T17:23:49.368Z,99386.98
2023-04-26T17:26:23.116Z,99383.51
2023-04-26T17:28:57.068Z,99390.79
2023-04-26T17:31:30.905Z,99394.55
2023-04-26T17:34:05.676Z,99393.90
2023-04-26T17:36:38.966Z,99400.10
2023-04-26T17:39:14.834Z,99395.05
2023-04-26T17:41:48.487Z,99401.48
2023-04-26T17:44:26.872Z,99395.95
2023-04-26T17:47:00.321Z,99404.54
2023-04-26T17:49:33.020Z,99401.89
2023-04-26T17:52:05.929Z,99405.55
2023-04-26T17:54:41.376Z,99411.77
2023-04-26T17:57:14.986Z,99413.30
2023-04-26T17:59:48.356Z,99417.94
2023-04-26T18:02:21.439Z,99415.45
2023-04-26T18:04:58.552Z,99419.15
2023-04-26T18:07:32.115Z,99421.27
2023-04-26T18:10:05.558Z,99426.39
2023-04-26T18:12:39.190Z,99430.89
2023-04-26T18:15:13.205Z,99429.67
2023-04-26T18:17:46.784Z,99434.43
2023-04-26T18:20:22.267Z,99435.56
2023-04-26T18:22:58.321Z,99435.58
2023-04-26T18:25:32.292Z,99440.59
2023-04-26T18:28:06.078Z,99440.48
2023-04-26T18:30:39.902Z,99444.09
2023-04-26T18:33:15.984Z,99442.84
2023-04-26T18:35:50.926Z,99443.54
2023-04-26T18:38:24.554Z,99449.70
2023-04-26T18:40:59.684Z,99450.36
2023-04-26T18:43:33.488Z,99450.90
2023-04-26T18:46:10.543Z,99451.83
2023-04-26T18:48:43.640Z,99456.96
2023-04-26T18:51:16.679Z,99453.48
2023-04-26T18:53:54.889Z,99459.42
2023-04-26T18:56:30.083Z,99459.42
2023-04-26T18:59:04.124Z,99460.23
2023-04-26T19:01:39.274Z,99460.42
2023-04-26T19:04:13.854Z,99456.48
2023-04-26T19:06:47.830Z,99463.48
2023-04-26T19:09:25.492Z,99464.33
2023-04-26T19:11:59.060Z,99464.26
2023-04-26T19:14:34.370Z,99463.00
2023-04-26T19:17:09.834Z,99463.99
2023-04-26T19:19:43.621Z,99459.45
2023-04-26T19:22:18.285Z,99461.35
2023-04-26T19:24:51.591Z,99457.96
2023-04-26T19:27:25.959Z,99468.16
2023-04-26T19:29:59.393Z,99469.51
2023-04-26T19:32:32.996Z,99470.16
2023-04-26T19:35:07.403Z,99466.39
2023-04-26T19:37:43.983Z,99468.70
2023-04-26T19:40:18.393Z,99470.52
2023-04-26T19:42:52.350Z,99475.33
2023-04-26T19:45:26.531Z,99475.23
2023-04-26T19:48:07.924Z,99472.02
2023-04-26T19:50:47.551Z,99472.45
2023-04-26T19:53:22.966Z,99470.00
2023-04-26T19:55:57.765Z,99472.28
2023-04-26T19:58:31.277Z,99474.27
2023-04-26T20:01:04.800Z,99472.75
2023-04-26T20:03:40.059Z,99471.81
2023-04-26T20:06:15.657Z,99471.41
2023-04-26T20:08:50.482Z,99473.46
2023-04-26T20:11:25.706Z,99474.18
2023-04-26T20:13:59.574Z,99469.34
2023-04-26T20:16:36.594Z,99471.56
2023-04-26T20:19:10.349Z,99469.48
2023-04-26T20:21:43.945Z,99469.30
2023-04-26T20:24:17.479Z,99467.28
2023-04-26T20:26:51.282Z,99469.57
2023-04-26T20:29:26.565Z,99474.30
2023-04-26T20:32:04.569Z,99471.77
2023-04-26T20:34:37.407Z,99469.80
2023-04-26T20:37:11.069Z,99472.80
2023-04-26T20:39:47.057Z,99473.55
2023-04-26T20:42:20.707Z,99471.52
2023-04-26T20:44:53.289Z,99472.30
2023-04-26T20:47:27.344Z,99472.12
2023-04-26T20:50:01.022Z,99475.42
2023-04-26T20:52:33.935Z,99476.48
2023-04-26T20:55:07.921Z,99480.33
2023-04-26T20:57:45.421Z,99476.80
2023-04-26T21:00:19.994Z,99475.21
2023-04-26T21:02:53.251Z,99477.48
2023-04-26T21:05:26.407Z,99480.81
2023-04-26T21:08:05.313Z,99479.19
2023-04-26T21:10:38.777Z,99477.50
2023-04-26T21:13:14.937Z,99479.96
2023-04-26T21:15:48.660Z,99482.30
2023-04-26T21:18:29.934Z,99481.63
2023-04-26T21:21:06.182Z,99483.61
2023-04-26T21:23:43.335Z,99486.10
2023-04-26T21:26:16.554Z,99483.77
2023-04-26T21:28:49.782Z,99485.77
2023-04-26T21:31:22.752Z,99484.77
2023-04-26T21:33:56.556Z,99492.44
2023-04-26T21:36:33.052Z,99495.07
2023-04-26T21:39:06.366Z,99493.73
2023-04-26T21:41:42.009Z,99497.35
2023-04-26T21:44:14.571Z,99500.48
2023-04-26T21:46:47.843Z,99501.16
2023-04-26T21:49:23.526Z,99501.73
2023-04-26T21:51:56.561Z,99504.55
2023-04-26T21:54:30.774Z,99505.08
2023-04-26T21:57:07.267Z,99506.68
2023-04-26T21:59:42.926Z,99510.19
2023-04-26T22:02:19.007Z,99513.02
2023-04-26T22:04:52.395Z,99516.52
2023-04-26T22:07:25.258Z,99520.56
2023-04-26T22:09:58.365Z,99524.06
2023-04-26T22:12:32.157Z,99522.70
2023-04-26T22:15:05.316Z,99527.27
2023-04-26T22:17:38.591Z,99527.42
2023-04-26T22:20:13.728Z,99527.27
2023-04-26T22:22:47.254Z,99530.23
2023-04-26T22:25:27.543Z,99526.45
2023-04-26T22:28:00.826Z,99528.90
2023-04-26T22:30:34.040Z,99532.91
2023-04-26T22:33:11.713Z,99536.61
2023-04-26T22:35:54.969Z,99539.07
2023-04-26T22:38:28.335Z,99537.76
2023-04-26T22:41:01.419Z,99536.70
2023-04-26T22:43:54.321Z,99540.05
2023-04-26T22:46:30.256Z,99540.96
2023-04-26T22:49:03.475Z,99537.86
2023-04-26T22:51:36.556Z,99539.10
2023-04-26T22:54:09.486Z,99542.96
2023-04-26T22:56:42.050Z,99538.81
2023-04-26T22:59:17.493Z,99537.41
2023-04-26T23:01:52.818Z,99539.83
2023-04-26T23:04:32.453Z,99543.17
2023-04-26T23:07:05.229Z,99545.62
2023-04-26T23:09:39.874Z,99548.23
2023-04-26T23:12:23.604Z,99553.15
2023-04-26T23:15:00.313Z,99550.95
2023-04-26T23:17:39.556Z,99554.29
2023-04-26T23:20:14.098Z,99552.41
2023-04-26T23:22:47.385Z,99554.02
2023-04-26T23:25:21.822Z,99552.51
2023-04-26T23:27:54.962Z,99553.02
2023-04-26T23:30:28.344Z,99550.09
2023-04-26T23:33:04.482Z,99556.23
2023-04-26T23:35:42.889Z,99557.29
2023-04-26T23:38:15.861Z,99557.05
2023-04-26T23:40:49.244Z,99561.58
2023-04-26T23:43:25.327Z,99556.94
2023-04-26T23:45:58.836Z,99560.59
2023-04-26T23:48:37.206Z,99558.73
2023-04-26T23:51:10.274Z,99557.53
2023-04-26T23:53:46.327Z,99558.79
2023-04-26T23:56:20.801Z,99560.37
2023-04-26T23:58:53.753Z,99557.96
